createdAt,value
2018-12-05T05:08:11.106Z,101637.11
2018-12-05T05:09:46.777Z,101632.03
2018-12-05T05:11:24.381Z,101638.64
2018-12-05T05:13:00.897Z,101639.14
2018-12-05T05:14:38.874Z,101642.75
2018-12-05T05:16:14.979Z,101646.41
2018-12-05T05:17:50.817Z,101645.99
2018-12-05T05:19:27.203Z,101644.70
2018-12-05T05:21:03.326Z,101648.03
2018-12-05T05:22:38.624Z,101650.22
2018-12-05T05:24:17.179Z,101654.92
2018-12-05T05:25:56.307Z,101652.93
2018-12-05T05:27:35.885Z,101658.47
2018-12-05T05:29:13.698Z,101657.61
2018-12-05T05:30:50.081Z,101658.72
2018-12-05T05:32:31.955Z,101661.84
2018-12-05T05:34:11.535Z,101664.80
2018-12-05T05:35:57.179Z,101665.75
2018-12-05T05:37:44.941Z,101665.43
2018-12-05T05:39:43.618Z,101661.73
2018-12-05T05:41:28.288Z,101666.77
2018-12-05T05:43:12.789Z,101659.02
2018-12-05T05:44:59.989Z,101664.37
2018-12-05T05:46:55.591Z,101664.23
2018-12-05T05:48:54.646Z,101666.61
2018-12-05T06:40:30.763Z,101702.47
2018-12-05T06:42:11.998Z,101703.50
2018-12-05T06:43:52.398Z,101705.44
2018-12-05T06:45:31.061Z,101698.18
2018-12-05T06:47:07.215Z,101706.90
2018-12-05T06:48:43.234Z,101708.98
2018-12-05T06:50:20.147Z,101706.77
2018-12-05T06:51:55.585Z,101709.58
2018-12-05T06:53:31.537Z,101710.88
2018-12-05T06:55:10.480Z,101712.56
2018-12-05T06:56:48.176Z,101714.64
2018-12-05T06:58:25.890Z,101715.32
2018-12-05T07:00:03.603Z,101713.18
2018-12-05T07:01:48.417Z,101715.70
2018-12-05T07:03:29.882Z,101713.94
2018-12-05T07:05:15.826Z,101715.00
2018-12-05T07:07:00.073Z,101714.14
2018-12-05T07:08:41.038Z,101713.33
2018-12-05T07:10:24.747Z,101718.16
2018-12-05T07:12:10.512Z,101715.69
2018-12-05T07:14:04.490Z,101721.40
2018-12-05T07:15:45.270Z,101718.45
2018-12-05T07:54:03.969Z,101715.47
2018-12-05T07:55:39.332Z,101763.34
2018-12-05T07:57:19.691Z,101764.98
2018-12-05T08:11:21.086Z,101775.78
2018-12-05T08:12:56.342Z,101772.98
2018-12-05T08:14:31.517Z,101774.80
2018-12-05T08:16:06.691Z,101775.56
2018-12-05T08:17:42.029Z,101777.84
2018-12-05T08:19:17.385Z,101775.94
2018-12-05T08:20:52.684Z,101776.16
2018-12-05T08:22:40.015Z,101784.00
2018-12-05T08:26:59.608Z,101773.23
2018-12-05T08:28:39.357Z,101766.80
2018-12-05T08:30:15.665Z,101773.83
2018-12-05T08:31:52.941Z,101771.55
2018-12-05T08:33:34.044Z,101774.66
2018-12-05T08:35:16.822Z,101773.65
2018-12-05T08:36:58.853Z,101767.91
2018-12-05T08:38:56.260Z,101772.14
2018-12-05T08:40:53.704Z,101772.45
2018-12-05T08:42:41.958Z,101777.23
2018-12-05T08:44:17.408Z,101779.22
2018-12-05T08:46:15.012Z,101773.75
2018-12-05T08:48:17.161Z,101778.80
2018-12-05T08:50:01.250Z,101774.23
2018-12-05T08:51:50.848Z,101775.12
2018-12-05T08:53:40.959Z,101772.20
2018-12-05T08:55:42.210Z,101776.50
2018-12-05T08:57:29.685Z,101780.84
2018-12-05T08:59:22.721Z,101776.91
2018-12-05T09:21:35.873Z,101774.56
2018-12-05T09:23:43.128Z,101775.14
2018-12-05T09:25:39.838Z,101769.02
2018-12-05T09:27:32.097Z,101767.11
2018-12-05T09:29:22.276Z,101764.20
2018-12-05T09:31:20.122Z,101762.94
2018-12-05T09:32:56.853Z,101751.59
2018-12-05T09:34:34.427Z,101753.70
2018-12-05T09:36:15.702Z,101751.67
2018-12-05T09:37:51.003Z,101752.86
2018-12-05T09:39:26.312Z,101744.33
2018-12-05T09:41:01.496Z,101742.56
2018-12-05T09:42:36.658Z,101737.77
2018-12-05T09:44:11.933Z,101736.97
2018-12-05T09:45:49.330Z,101736.28
2018-12-05T09:47:28.319Z,101732.13
2018-12-05T09:49:59.370Z,101736.67
2018-12-05T12:01:56.651Z,101592.70
2018-12-05T12:03:31.660Z,101589.04
2018-12-05T12:05:07.278Z,101586.79
2018-12-05T12:06:42.236Z,101595.22
2018-12-05T12:08:17.265Z,101593.28
2018-12-05T12:09:52.258Z,101598.00
2018-12-05T12:11:27.231Z,101601.16
2018-12-05T12:13:05.957Z,101586.80
2018-12-05T12:14:41.014Z,101592.29
2018-12-05T12:16:16.307Z,101592.06
2018-12-05T12:17:51.272Z,101592.53
2018-12-05T12:19:26.201Z,101590.33
2018-12-05T12:21:01.273Z,101587.74
2018-12-05T12:22:36.216Z,101586.23
2018-12-05T12:24:11.218Z,101591.12
2018-12-05T12:25:46.245Z,101588.08
2018-12-05T12:27:21.304Z,101585.71
2018-12-05T12:28:56.209Z,101578.31
2018-12-05T12:30:31.129Z,101590.66
2018-12-05T12:32:06.091Z,101587.07
2018-12-05T12:33:41.072Z,101580.52
2018-12-05T12:35:16.035Z,101586.89
2018-12-05T12:36:50.945Z,101583.86
2018-12-05T12:38:25.854Z,101587.17
2018-12-05T12:40:00.826Z,101589.23
2018-12-05T12:41:35.748Z,101586.91
2018-12-05T12:43:10.775Z,101580.66
2018-12-05T12:44:45.746Z,101573.82
2018-12-05T12:46:20.960Z,101565.64
2018-12-05T12:47:55.916Z,101566.16
2018-12-05T12:49:31.027Z,101561.16
2018-12-05T12:51:06.096Z,101562.31
2018-12-05T12:52:41.157Z,101559.08
2018-12-05T12:54:16.071Z,101560.42
2018-12-05T12:55:50.993Z,101560.02
2018-12-05T12:57:25.911Z,101560.20
2018-12-05T12:59:01.067Z,101558.72
2018-12-05T13:00:36.210Z,101557.92
2018-12-05T13:02:11.143Z,101560.09
2018-12-05T13:03:46.076Z,101554.59
2018-12-05T13:05:21.108Z,101549.13
2018-12-05T13:06:56.015Z,101550.14
2018-12-05T13:08:31.036Z,101542.88
2018-12-05T13:10:07.212Z,101539.31
2018-12-05T13:11:42.225Z,101539.13
2018-12-05T13:13:17.167Z,101534.98
2018-12-05T13:14:52.152Z,101541.00
2018-12-05T13:16:27.095Z,101537.96
2018-12-05T13:18:02.098Z,101534.34
2018-12-05T13:19:37.053Z,101527.30
2018-12-05T13:21:12.055Z,101523.68
2018-12-05T13:22:47.030Z,101528.66
2018-12-05T13:24:22.339Z,101522.55
2018-12-05T13:25:57.243Z,101525.23
2018-12-05T13:27:32.148Z,101524.36
2018-12-05T13:29:07.133Z,101527.32
2018-12-05T13:30:42.128Z,101526.05
2018-12-05T13:32:17.058Z,101524.64
2018-12-05T13:33:52.650Z,101513.64
2018-12-05T13:35:28.161Z,101527.84
2018-12-05T13:37:03.336Z,101518.39
2018-12-05T13:38:38.464Z,101511.55
2018-12-05T13:40:13.616Z,101510.11
2018-12-05T13:41:48.623Z,101513.27
2018-12-05T13:43:23.528Z,101511.83
2018-12-05T13:44:58.540Z,101510.81
2018-12-05T13:46:33.624Z,101507.34
2018-12-05T13:48:08.711Z,101509.20
2018-12-05T13:49:43.665Z,101508.67
2018-12-05T13:51:18.671Z,101503.48
2018-12-05T13:52:53.642Z,101515.30
2018-12-05T13:54:28.548Z,101515.72
2018-12-05T13:56:03.476Z,101511.22
2018-12-05T13:57:38.540Z,101520.20
2018-12-05T13:59:13.476Z,101518.84
2018-12-05T14:00:48.599Z,101522.08
2018-12-05T14:02:23.480Z,101523.96
2018-12-05T14:03:58.587Z,101525.80
2018-12-05T14:05:33.547Z,101526.05
2018-12-05T14:07:08.583Z,101526.03
2018-12-05T14:08:43.532Z,101526.42
2018-12-05T14:10:18.488Z,101525.34
2018-12-05T14:11:53.559Z,101525.78
2018-12-05T14:13:28.603Z,101520.98
2018-12-05T14:15:03.628Z,101524.03
2018-12-05T14:16:38.598Z,101526.11
2018-12-05T14:18:13.576Z,101525.09
2018-12-05T14:19:48.584Z,101524.19
2018-12-05T14:21:23.524Z,101520.23
2018-12-05T14:22:58.403Z,101519.30
2018-12-05T14:24:33.320Z,101522.22
2018-12-05T14:26:08.269Z,101524.53
2018-12-05T14:27:43.279Z,101522.98
2018-12-05T14:29:18.220Z,101518.93
2018-12-05T14:30:53.152Z,101517.53
2018-12-05T14:32:28.263Z,101513.80
2018-12-05T14:34:03.287Z,101510.97
2018-12-05T14:35:38.245Z,101508.64
2018-12-05T14:37:13.131Z,101508.72
2018-12-05T14:38:48.063Z,101512.59
2018-12-05T14:40:23.049Z,101511.92
2018-12-05T14:41:58.048Z,101510.00
2018-12-05T14:43:33.017Z,101515.95
2018-12-05T14:45:08.223Z,101509.72
2018-12-05T14:46:43.188Z,101509.30
2018-12-05T14:48:18.169Z,101512.90
2018-12-05T14:49:53.094Z,101512.13
2018-12-05T14:51:28.037Z,101522.84
2018-12-05T14:53:02.935Z,101519.69
2018-12-05T14:54:37.892Z,101515.37
2018-12-05T14:56:12.889Z,101507.29
2018-12-05T14:57:47.835Z,101517.09
2018-12-05T14:59:22.799Z,101518.55
2018-12-05T15:00:57.728Z,101524.65
2018-12-05T15:02:32.710Z,101522.05
2018-12-05T15:04:07.679Z,101517.22
2018-12-05T15:05:42.593Z,101516.80
2018-12-05T15:07:17.532Z,101513.45
2018-12-05T15:08:52.495Z,101509.37
2018-12-05T15:10:27.424Z,101508.14
2018-12-05T15:12:02.499Z,101507.77
2018-12-05T15:13:37.413Z,101511.06
2018-12-05T15:15:12.463Z,101514.47
2018-12-05T15:16:47.415Z,101505.80
2018-12-05T15:18:22.362Z,101516.42
2018-12-05T15:19:57.368Z,101518.22
2018-12-05T15:21:32.299Z,101514.63
2018-12-05T15:23:07.196Z,101514.80
2018-12-05T15:24:42.129Z,101514.24
2018-12-05T15:26:17.096Z,101514.83
2018-12-05T15:27:52.077Z,101512.02
2018-12-05T15:29:26.984Z,101510.14
2018-12-05T15:31:01.863Z,101505.97
2018-12-05T15:32:36.834Z,101498.73
2018-12-05T15:34:11.901Z,101501.13
2018-12-05T15:35:46.877Z,101497.25
2018-12-05T15:37:21.824Z,101502.91
2018-12-05T15:38:56.868Z,101503.23
2018-12-05T15:40:31.796Z,101503.05
2018-12-05T15:42:06.808Z,101497.30
2018-12-05T15:43:41.728Z,101491.63
2018-12-05T15:45:21.468Z,101490.45
2018-12-05T15:46:53.708Z,101492.77
2018-12-05T15:48:28.692Z,101486.93
2018-12-05T15:50:03.631Z,101485.39
2018-12-05T15:51:38.612Z,101481.02
2018-12-05T15:53:13.568Z,101476.36
2018-12-05T15:54:48.540Z,101480.19
2018-12-05T15:56:23.471Z,101477.34
2018-12-05T15:57:58.423Z,101478.37
2018-12-05T15:59:33.375Z,101470.63
2018-12-05T16:01:08.636Z,101475.96
2018-12-05T16:02:43.590Z,101466.68
2018-12-05T16:04:18.508Z,101470.41
2018-12-05T16:05:53.440Z,101463.32
2018-12-05T16:07:28.432Z,101463.25
2018-12-05T16:09:03.582Z,101461.50
2018-12-05T16:10:38.509Z,101460.70
2018-12-05T16:12:13.437Z,101456.32
2018-12-05T16:13:48.436Z,101457.36
2018-12-05T16:15:23.461Z,101455.52
2018-12-05T16:16:58.391Z,101454.66
2018-12-05T16:18:33.314Z,101456.89
2018-12-05T16:20:08.604Z,101453.70
2018-12-05T16:21:43.596Z,101448.73
2018-12-05T16:23:18.680Z,101447.08
2018-12-05T16:24:53.597Z,101453.63
2018-12-05T16:26:28.576Z,101443.77
2018-12-05T16:28:03.589Z,101445.92
2018-12-05T16:29:38.516Z,101447.78
2018-12-05T16:31:13.443Z,101445.48
2018-12-05T16:32:48.389Z,101440.73
2018-12-05T16:34:23.396Z,101441.73
2018-12-05T16:35:58.365Z,101437.93
2018-12-05T16:37:33.365Z,101429.34
2018-12-05T16:39:09.912Z,101432.53
2018-12-05T16:40:44.881Z,101436.59
2018-12-05T16:42:19.988Z,101431.81
2018-12-05T16:43:55.095Z,101433.70
2018-12-05T16:45:35.651Z,101438.11
2018-12-05T16:47:11.120Z,101432.98
2018-12-05T16:48:46.132Z,101436.88
2018-12-05T16:50:21.137Z,101432.54
2018-12-05T16:51:56.303Z,101431.83
2018-12-05T16:53:31.904Z,101436.00
2018-12-05T16:55:07.219Z,101434.33
2018-12-05T16:56:42.272Z,101432.47
2018-12-05T16:58:17.312Z,101425.66
2018-12-05T16:59:52.485Z,101420.69
2018-12-05T17:01:27.645Z,101427.11
2018-12-05T17:03:05.772Z,101433.02
2018-12-05T17:04:40.755Z,101438.45
2018-12-05T17:06:16.591Z,101432.83
2018-12-05T17:07:51.901Z,101436.45
2018-12-05T17:09:26.999Z,101431.98
2018-12-05T17:11:02.160Z,101427.67
2018-12-05T17:12:37.082Z,101425.45
2018-12-05T17:14:12.254Z,101425.48
2018-12-05T17:15:47.213Z,101420.22
2018-12-05T17:17:22.359Z,101419.91
2018-12-05T17:18:57.283Z,101429.66
2018-12-05T17:20:32.515Z,101423.74
2018-12-05T17:22:07.612Z,101417.63
2018-12-05T17:23:42.764Z,101422.27
2018-12-05T17:25:17.941Z,101421.77
2018-12-05T17:26:52.953Z,101423.72
2018-12-05T17:28:27.876Z,101425.49
2018-12-05T17:30:02.809Z,101424.45
2018-12-05T17:31:37.767Z,101421.46
2018-12-05T17:33:12.951Z,101421.33
2018-12-05T17:34:48.263Z,101416.16
2018-12-05T17:36:23.375Z,101415.21
2018-12-05T17:37:58.477Z,101418.19
2018-12-05T17:39:33.521Z,101417.98
2018-12-05T17:41:08.428Z,101419.30
2018-12-05T17:42:43.376Z,101416.02
2018-12-05T17:44:18.388Z,101414.41
2018-12-05T17:45:53.618Z,101414.81
2018-12-05T17:47:28.699Z,101413.16
2018-12-05T17:49:03.885Z,101418.02
2018-12-05T17:50:38.984Z,101416.34
2018-12-05T17:52:13.962Z,101412.89
2018-12-05T17:53:49.116Z,101414.59
2018-12-05T17:55:24.296Z,101402.30
2018-12-05T17:56:59.592Z,101395.11
2018-12-05T17:58:34.763Z,101400.75
2018-12-05T18:00:10.046Z,101405.55
2018-12-05T18:01:45.068Z,101404.47
2018-12-05T18:03:20.134Z,101402.13
2018-12-05T18:04:55.072Z,101402.08
2018-12-05T18:06:30.598Z,101400.59
2018-12-05T18:08:05.786Z,101396.40
2018-12-05T18:09:40.784Z,101398.42
2018-12-05T18:11:16.916Z,101397.20
2018-12-05T18:12:52.541Z,101397.41
2018-12-05T18:14:27.771Z,101397.56
2018-12-05T18:16:02.768Z,101402.19
2018-12-05T18:17:38.119Z,101398.70
2018-12-05T18:19:13.093Z,101392.84
2018-12-05T18:20:48.144Z,101389.13
2018-12-05T18:22:23.218Z,101384.77
2018-12-05T18:23:58.397Z,101381.63
2018-12-05T18:25:33.561Z,101388.55
2018-12-05T18:27:09.001Z,101382.34
2018-12-05T18:28:44.041Z,101381.23
2018-12-05T18:30:19.422Z,101375.70
2018-12-05T18:31:54.648Z,101377.49
2018-12-05T18:33:29.802Z,101371.14
2018-12-05T18:35:05.831Z,101368.14
2018-12-05T18:36:41.122Z,101371.02
2018-12-05T18:38:16.146Z,101367.00
2018-12-05T18:39:51.447Z,101369.30
2018-12-05T18:41:26.916Z,101369.16
2018-12-05T18:43:02.065Z,101369.14
2018-12-05T18:44:37.532Z,101368.61
2018-12-05T18:46:12.524Z,101371.45
2018-12-05T18:47:47.799Z,101371.70
2018-12-05T18:49:22.810Z,101373.71
2018-12-05T18:50:58.062Z,101370.20
2018-12-05T18:52:33.449Z,101365.26
2018-12-05T18:54:09.093Z,101369.08
2018-12-05T18:55:44.198Z,101366.41
2018-12-05T18:57:19.244Z,101363.02
2018-12-05T18:58:54.379Z,101355.72
2018-12-05T19:00:29.356Z,101356.78
2018-12-05T19:02:04.798Z,101352.83
2018-12-05T19:03:39.864Z,101350.36
2018-12-05T19:05:14.957Z,101337.92
2018-12-05T19:06:50.636Z,101339.76
2018-12-05T19:08:25.823Z,101342.11
2018-12-05T19:10:00.870Z,101343.83
2018-12-05T19:11:35.833Z,101347.12
2018-12-05T19:13:12.861Z,101329.45
2018-12-05T19:14:48.121Z,101327.37
2018-12-05T19:16:29.800Z,101334.09
2018-12-05T19:18:05.399Z,101333.28
2018-12-05T19:19:40.744Z,101332.33
2018-12-05T19:21:15.835Z,101327.59
2018-12-05T19:22:50.805Z,101327.66
2018-12-05T19:24:25.976Z,101325.78
2018-12-05T19:26:01.072Z,101338.02
2018-12-05T19:27:36.171Z,101337.71
2018-12-05T19:29:11.666Z,101332.82
2018-12-05T19:30:47.660Z,101329.23
2018-12-05T19:32:22.600Z,101326.50
2018-12-05T19:33:57.768Z,101317.60
2018-12-05T19:35:34.774Z,101318.50
2018-12-05T19:37:09.936Z,101320.84
2018-12-05T19:38:45.065Z,101321.07
2018-12-05T19:40:20.175Z,101318.33
2018-12-05T19:41:55.580Z,101321.59
2018-12-05T19:43:30.678Z,101325.48
2018-12-05T19:45:07.057Z,101326.70
2018-12-05T19:46:42.017Z,101319.50
2018-12-05T19:48:17.072Z,101316.22
2018-12-05T19:49:52.064Z,101303.36
2018-12-05T19:51:27.089Z,101311.13
2018-12-05T19:53:02.039Z,101316.55
2018-12-05T19:54:36.991Z,101308.69
2018-12-05T19:56:12.041Z,101314.06
2018-12-05T19:57:47.164Z,101315.17
2018-12-05T19:59:22.187Z,101313.42
2018-12-05T22:02:38.175Z,101151.34
